CheckWX is a tool to help pilots better visualize weather data.  It is not intended as a substitute for an official pre-flight weather briefing.

07:04:54 UTC

KICT TAF
Wichita Dwight D Eisenhower National Airport
Wichita, Kansas, USA
KICT 190522Z 1906/2006 05007KT P6SM VCTS OVC035CB FM191000 01007KT P6SM VCSH OVC020 FM191700 34008KT P6SM BKN030 FM192200 VRB04KT P6SM SCT090

Jun-19@
06:00 UTC

Jun-19 @ 06:00 UTC

Jun-19@
10:00 UTC

Jun-19 @ 10:00 UTC

KICT 190522Z 1906/2006 05007KT P6SM VCTS OVC035CB
Wind
  • 050° at 7 KTS
Conditions
Area Thunderstorm
Cloud Levels
  • Overcast at 3,500' AGL

Jun-19@
10:00 UTC

Jun-19 @ 10:00 UTC

Jun-19@
17:00 UTC

Jun-19 @ 17:00 UTC

FM191000 01007KT P6SM VCSH OVC020

From

From Standard forecast or significant change

Wind
  • 010° at 7 KTS
Cloud Levels
  • Overcast at 2,000' AGL

Jun-19@
17:00 UTC

Jun-19 @ 17:00 UTC

Jun-19@
22:00 UTC

Jun-19 @ 22:00 UTC

FM191700 34008KT P6SM BKN030

From

From Standard forecast or significant change

Wind
  • 340° at 8 KTS
Cloud Levels
  • Broken at 3,000' AGL

Jun-19@
22:00 UTC

Jun-19 @ 22:00 UTC

Jun-20@
06:00 UTC

Jun-20 @ 06:00 UTC

FM192200 VRB04KT P6SM SCT090

From

From Standard forecast or significant change

Wind
  • Variable at 4 KTS
Cloud Levels
  • Scattered at 9,000' AGL